createdAt,value
2019-05-07T00:02:02.740Z,72.55
2019-05-07T00:04:34.672Z,72.58
2019-05-07T00:07:06.497Z,72.54
2019-05-07T00:09:38.522Z,72.64
2019-05-07T00:12:12.586Z,72.58
2019-05-07T00:14:58.244Z,72.62
2019-05-07T00:17:19.031Z,72.40
2019-05-07T00:19:52.608Z,72.33
2019-05-07T00:22:25.598Z,72.53
2019-05-07T00:24:57.880Z,72.57
2019-05-07T00:27:31.920Z,72.93
2019-05-07T00:30:03.248Z,72.56
2019-05-07T00:32:34.588Z,72.27
2019-05-07T00:35:08.273Z,72.26
2019-05-07T00:37:45.232Z,72.17
2019-05-07T00:40:32.799Z,72.32
2019-05-07T00:43:16.773Z,72.71
2019-05-07T00:46:02.289Z,72.71
2019-05-07T00:48:34.156Z,72.72
2019-05-07T00:51:28.244Z,73.21
2019-05-07T00:54:02.706Z,73.66
2019-05-07T00:56:33.829Z,73.33
2019-05-07T00:59:06.279Z,72.62
2019-05-07T01:01:38.405Z,72.46
2019-05-07T01:04:12.016Z,72.71
2019-05-07T01:06:43.633Z,72.64
2019-05-07T01:09:15.730Z,72.89
2019-05-07T01:11:47.672Z,72.76
2019-05-07T01:14:19.807Z,73.28
2019-05-07T01:16:52.894Z,73.30
2019-05-07T01:19:24.551Z,72.83
2019-05-07T01:21:56.602Z,72.60
2019-05-07T01:24:28.590Z,72.88
2019-05-07T01:27:02.143Z,73.31
2019-05-07T01:29:34.162Z,72.79
2019-05-07T01:32:12.965Z,73.15
2019-05-07T01:34:55.683Z,73.19
2019-05-07T01:37:26.913Z,73.55
2019-05-07T01:39:58.463Z,73.97
2019-05-07T01:42:32.557Z,73.87
2019-05-07T01:45:03.929Z,74.08
2019-05-07T01:47:35.274Z,74.19
2019-05-07T01:50:08.831Z,74.02
2019-05-07T01:52:42.722Z,73.84
2019-05-07T01:55:14.430Z,73.82
2019-05-07T01:57:46.021Z,74.25
2019-05-07T02:00:17.444Z,73.38
2019-05-07T02:02:57.135Z,73.22
2019-05-07T02:05:47.805Z,73.33
2019-05-07T02:08:38.703Z,73.32
2019-05-07T02:11:13.150Z,73.44
2019-05-07T02:13:45.887Z,73.06
2019-05-07T02:16:17.731Z,73.14
2019-05-07T02:18:49.554Z,73.46
2019-05-07T02:21:22.049Z,73.23
2019-05-07T02:23:54.344Z,73.17
2019-05-07T02:26:25.875Z,73.10
2019-05-07T02:28:57.467Z,73.10
2019-05-07T02:31:29.359Z,73.32
2019-05-07T02:34:02.745Z,73.94
2019-05-07T02:36:35.641Z,73.59
2019-05-07T02:39:16.030Z,73.73
2019-05-07T02:41:47.738Z,73.29
2019-05-07T02:44:19.281Z,73.65
2019-05-07T02:47:04.041Z,73.89
2019-05-07T02:49:46.395Z,73.58
2019-05-07T02:52:24.884Z,73.99
2019-05-07T02:55:07.334Z,74.22
2019-05-07T02:57:39.203Z,74.22
2019-05-07T03:00:14.079Z,73.89
2019-05-07T03:02:43.942Z,74.07
2019-05-07T03:05:15.551Z,73.72
2019-05-07T03:07:47.127Z,74.00
2019-05-07T03:10:19.229Z,74.05
2019-05-07T03:12:53.626Z,73.78
2019-05-07T03:15:28.271Z,73.56
2019-05-07T03:18:03.419Z,73.52
2019-05-07T03:20:44.101Z,73.41
2019-05-07T03:23:18.581Z,73.44
2019-05-07T03:26:08.690Z,73.60
2019-05-07T03:28:53.457Z,73.71
2019-05-07T03:31:46.604Z,73.67
2019-05-07T03:34:38.494Z,73.78
2019-05-07T03:37:13.570Z,74.11
2019-05-07T03:39:45.239Z,74.46
2019-05-07T03:42:17.227Z,73.83
2019-05-07T03:44:54.001Z,74.13
2019-05-07T03:47:33.316Z,73.73
2019-05-07T03:50:06.470Z,74.05
2019-05-07T03:52:37.852Z,74.15
2019-05-07T03:55:10.290Z,74.39
2019-05-07T03:57:43.666Z,74.46
2019-05-07T04:00:15.772Z,74.69
2019-05-07T04:02:47.554Z,75.02
2019-05-07T04:05:22.940Z,74.45
2019-05-07T04:07:54.110Z,74.60
2019-05-07T04:10:25.777Z,74.55
2019-05-07T04:12:57.143Z,74.70
2019-05-07T04:15:28.970Z,74.78
2019-05-07T04:18:03.495Z,74.89
2019-05-07T04:20:34.260Z,74.64
2019-05-07T04:23:06.189Z,74.50
2019-05-07T04:25:57.107Z,74.39
2019-05-07T04:29:05.826Z,74.33
2019-05-07T04:31:43.057Z,74.29
2019-05-07T04:34:19.374Z,74.36
2019-05-07T04:36:53.418Z,74.44
2019-05-07T04:39:24.462Z,74.42
2019-05-07T04:41:56.077Z,74.34
2019-05-07T04:44:28.270Z,74.27
2019-05-07T04:47:00.439Z,73.87
2019-05-07T04:49:33.236Z,73.87
2019-05-07T04:52:12.473Z,73.27
2019-05-07T04:54:43.657Z,73.27
2019-05-07T04:57:28.335Z,73.37
2019-05-07T05:00:03.330Z,72.74
2019-05-07T05:02:43.536Z,72.57
2019-05-07T05:05:15.576Z,72.27
2019-05-07T05:07:46.882Z,72.50
2019-05-07T05:10:18.622Z,72.66
2019-05-07T05:12:50.248Z,72.36
2019-05-07T05:15:22.334Z,72.68
2019-05-07T05:17:54.306Z,72.36
2019-05-07T05:20:35.040Z,72.39
2019-05-07T05:23:24.280Z,72.31
2019-05-07T05:25:55.967Z,71.92
2019-05-07T05:28:27.820Z,72.50
2019-05-07T05:31:03.302Z,72.53
2019-05-07T05:33:34.929Z,71.66
2019-05-07T05:36:06.518Z,71.66
2019-05-07T05:38:38.141Z,71.60
2019-05-07T05:41:12.300Z,72.18
2019-05-07T05:44:05.086Z,71.89
2019-05-07T05:46:37.160Z,72.57
2019-05-07T05:49:08.731Z,72.44
2019-05-07T05:52:02.147Z,72.40
2019-05-07T05:54:42.461Z,71.91
2019-05-07T05:57:35.490Z,72.16
2019-05-07T06:00:38.583Z,71.91
2019-05-07T06:03:32.345Z,72.08
2019-05-07T06:06:14.763Z,71.85
2019-05-07T06:08:52.630Z,71.31
2019-05-07T06:11:55.866Z,70.71
2019-05-07T06:14:42.500Z,70.03
2019-05-07T06:17:36.905Z,68.98
2019-05-07T06:20:33.903Z,69.55
2019-05-07T06:23:23.201Z,68.65
2019-05-07T06:25:54.871Z,68.50
2019-05-07T06:28:26.619Z,67.65
2019-05-07T06:30:58.342Z,67.01
2019-05-07T06:33:32.413Z,66.51
2019-05-07T06:36:04.568Z,65.43
2019-05-07T06:38:42.940Z,65.72
2019-05-07T06:41:25.124Z,66.32
2019-05-07T06:44:02.063Z,65.93
2019-05-07T06:46:34.265Z,65.49
2019-05-07T06:49:08.510Z,64.86
2019-05-07T06:51:41.976Z,63.81
2019-05-07T06:54:13.949Z,63.14
2019-05-07T06:56:45.604Z,63.14
2019-05-07T06:59:26.163Z,63.86
2019-05-07T07:02:16.559Z,63.59
2019-05-07T07:04:55.286Z,63.20
2019-05-07T07:07:42.282Z,62.61
2019-05-07T07:10:25.035Z,62.61
2019-05-07T07:12:56.669Z,61.40
2019-05-07T07:15:28.214Z,60.12
2019-05-07T07:17:59.980Z,59.66
2019-05-07T07:20:32.666Z,59.46
2019-05-07T07:23:04.677Z,58.09
2019-05-07T07:25:36.499Z,57.60
2019-05-07T07:28:08.959Z,56.67
2019-05-07T07:30:54.328Z,55.67
2019-05-07T07:33:28.710Z,56.93
2019-05-07T07:36:02.477Z,57.67
2019-05-07T07:38:35.474Z,57.48
2019-05-07T07:41:22.321Z,55.96
2019-05-07T07:43:54.215Z,56.20
2019-05-07T07:46:25.881Z,55.25
2019-05-07T07:49:07.859Z,52.46
2019-05-07T07:51:40.586Z,52.18
2019-05-07T07:54:05.025Z,53.84
2019-05-07T07:56:52.969Z,53.40
2019-05-07T07:59:52.948Z,52.51
2019-05-07T08:02:32.231Z,53.77
2019-05-07T08:05:03.093Z,52.24
2019-05-07T08:07:34.833Z,50.58
2019-05-07T08:10:06.673Z,51.61
2019-05-07T08:12:42.066Z,49.85
2019-05-07T08:15:20.390Z,47.94
2019-05-07T08:17:46.552Z,47.66
2019-05-07T08:20:19.286Z,48.98
2019-05-07T08:22:52.623Z,49.05
2019-05-07T08:25:42.694Z,48.54
2019-05-07T08:28:14.474Z,49.71
2019-05-07T08:30:54.230Z,49.58
2019-05-07T08:33:32.311Z,48.57
2019-05-07T08:36:17.254Z,47.59
2019-05-07T08:38:53.243Z,46.13
2019-05-07T08:41:26.049Z,44.13
2019-05-07T08:44:15.095Z,46.53
2019-05-07T08:47:03.854Z,47.64
2019-05-07T08:49:39.854Z,47.46
2019-05-07T08:52:12.020Z,49.06
2019-05-07T08:54:44.330Z,49.93
2019-05-07T08:57:16.123Z,49.37
2019-05-07T09:00:00.120Z,49.37
2019-05-07T09:02:22.272Z,49.04
2019-05-07T09:04:54.023Z,49.65
2019-05-07T09:07:25.986Z,47.30
2019-05-07T09:09:58.220Z,45.41
2019-05-07T09:12:31.699Z,45.16
2019-05-07T09:15:05.260Z,43.63
2019-05-07T09:17:36.596Z,45.44
2019-05-07T09:20:09.303Z,46.43
2019-05-07T09:22:42.743Z,45.99
2019-05-07T09:25:14.907Z,42.34
2019-05-07T09:27:48.203Z,41.23
2019-05-07T09:30:56.787Z,39.93
2019-05-07T09:33:42.317Z,41.75
2019-05-07T09:36:22.848Z,42.71
2019-05-07T09:38:59.341Z,46.81
2019-05-07T09:41:32.587Z,48.16
2019-05-07T09:44:03.311Z,48.41
2019-05-07T09:46:34.905Z,45.82
2019-05-07T09:49:07.142Z,43.79
2019-05-07T09:51:38.660Z,42.23
2019-05-07T09:54:12.717Z,43.67
2019-05-07T09:56:44.432Z,40.97
2019-05-07T09:59:16.316Z,42.82
2019-05-07T10:01:47.948Z,44.16
2019-05-07T10:04:19.313Z,44.13
2019-05-07T10:06:51.898Z,44.06
2019-05-07T10:09:23.659Z,42.13
2019-05-07T10:12:06.752Z,39.59
2019-05-07T10:14:38.432Z,39.08
2019-05-07T10:17:33.451Z,38.17
2019-05-07T10:20:18.232Z,39.52
2019-05-07T10:22:42.883Z,38.55
2019-05-07T10:25:14.234Z,38.55
2019-05-07T10:27:47.906Z,36.98
2019-05-07T10:30:21.714Z,38.66
2019-05-07T10:32:52.851Z,37.74
2019-05-07T10:35:23.992Z,38.20
2019-05-07T10:37:56.681Z,37.83
2019-05-07T10:40:28.460Z,36.37
2019-05-07T10:43:00.324Z,38.22
2019-05-07T10:45:51.967Z,40.09
2019-05-07T10:48:46.419Z,41.19
2019-05-07T10:51:18.293Z,41.89
2019-05-07T10:53:51.680Z,42.13
2019-05-07T10:56:22.607Z,42.15
2019-05-07T10:58:54.094Z,42.43
2019-05-07T11:01:38.117Z,42.05
2019-05-07T11:04:09.897Z,42.78
2019-05-07T11:06:41.904Z,42.89
2019-05-07T11:09:13.896Z,41.01
2019-05-07T11:11:46.032Z,40.30
2019-05-07T11:14:17.725Z,39.92
2019-05-07T11:17:11.955Z,39.67
2019-05-07T11:19:43.322Z,39.69
2019-05-07T11:22:15.839Z,41.20
2019-05-07T11:24:47.088Z,41.27
2019-05-07T11:27:18.902Z,41.13
2019-05-07T11:29:50.834Z,40.49
2019-05-07T11:32:22.350Z,38.33
2019-05-07T11:34:56.378Z,37.32
2019-05-07T11:37:27.992Z,35.19
2019-05-07T11:39:59.959Z,34.20
2019-05-07T11:43:06.100Z,34.11
2019-05-07T11:46:01.982Z,33.03
2019-05-07T11:48:36.402Z,33.47
2019-05-07T11:51:23.323Z,36.26
2019-05-07T11:54:14.756Z,36.55
2019-05-07T11:56:46.246Z,37.27
2019-05-07T11:59:17.797Z,35.72
2019-05-07T12:01:53.515Z,33.96
2019-05-07T12:04:27.859Z,35.71
2019-05-07T12:06:58.956Z,35.82
2019-05-07T12:09:30.741Z,35.44
2019-05-07T12:12:02.665Z,35.99
2019-05-07T12:14:35.102Z,35.39
2019-05-07T12:17:06.357Z,36.03
2019-05-07T12:19:37.620Z,36.59
2019-05-07T12:22:08.933Z,38.20
2019-05-07T12:24:41.879Z,37.36
2019-05-07T12:27:13.375Z,36.23
2019-05-07T12:29:47.692Z,36.20
2019-05-07T12:32:28.725Z,36.46
2019-05-07T12:35:04.725Z,35.46
2019-05-07T12:37:35.969Z,35.04
2019-05-07T12:40:07.812Z,37.22
2019-05-07T12:42:39.647Z,35.70
2019-05-07T12:45:12.606Z,36.12
2019-05-07T12:47:44.837Z,36.34
2019-05-07T12:50:16.800Z,36.20
2019-05-07T12:52:56.546Z,36.67
2019-05-07T12:55:39.264Z,36.67
2019-05-07T12:58:12.616Z,35.82
2019-05-07T13:00:59.607Z,36.42
2019-05-07T13:03:54.367Z,36.54
2019-05-07T13:06:26.855Z,36.56
2019-05-07T13:09:01.156Z,35.64
2019-05-07T13:11:34.691Z,34.66
2019-05-07T13:14:06.624Z,33.47
2019-05-07T13:16:39.521Z,35.41
2019-05-07T13:19:13.096Z,35.19
2019-05-07T13:21:49.617Z,34.63
2019-05-07T13:24:18.268Z,34.65
2019-05-07T13:26:51.800Z,33.83
2019-05-07T13:29:23.508Z,34.22
2019-05-07T13:31:55.582Z,34.60
2019-05-07T13:34:27.227Z,33.00
2019-05-07T13:37:03.130Z,35.41
2019-05-07T13:39:57.167Z,36.27
2019-05-07T13:42:43.924Z,36.48
2019-05-07T13:45:37.581Z,36.46
2019-05-07T13:48:15.571Z,35.91
2019-05-07T13:50:47.682Z,35.93
2019-05-07T13:53:20.038Z,35.23
2019-05-07T13:55:51.438Z,34.47
2019-05-07T13:58:23.135Z,34.86
2019-05-07T14:01:04.933Z,33.72
2019-05-07T14:03:36.126Z,34.61
2019-05-07T14:06:07.439Z,34.45
2019-05-07T14:08:42.366Z,34.48
2019-05-07T14:11:13.756Z,34.30
2019-05-07T14:13:46.140Z,35.10
2019-05-07T14:16:18.007Z,35.19
2019-05-07T14:18:49.620Z,34.95
2019-05-07T14:21:21.956Z,36.31
2019-05-07T14:23:53.774Z,36.87
2019-05-07T14:26:25.274Z,35.97
2019-05-07T14:28:56.812Z,34.80
2019-05-07T14:31:28.630Z,34.48
2019-05-07T14:34:13.393Z,34.50
2019-05-07T14:36:57.842Z,33.89
2019-05-07T14:39:36.185Z,34.44
2019-05-07T14:42:09.835Z,33.76
2019-05-07T14:44:52.810Z,34.82
2019-05-07T14:47:24.493Z,35.47
2019-05-07T14:49:55.892Z,34.62
2019-05-07T14:52:33.066Z,33.96
2019-05-07T14:55:05.030Z,34.75
2019-05-07T14:57:36.074Z,33.85
2019-05-07T15:00:07.760Z,34.02
2019-05-07T15:02:41.929Z,34.08
2019-05-07T15:05:12.964Z,32.86
2019-05-07T15:08:07.041Z,32.95
2019-05-07T15:10:27.242Z,33.24
2019-05-07T15:12:59.121Z,33.62
2019-05-07T15:15:31.175Z,33.28
2019-05-07T15:18:08.647Z,33.64
2019-05-07T15:20:41.954Z,34.72
2019-05-07T15:23:18.647Z,34.38
2019-05-07T15:25:51.715Z,34.93
2019-05-07T15:28:23.921Z,33.86
2019-05-07T15:31:02.942Z,34.05
2019-05-07T15:33:34.681Z,35.32
2019-05-07T15:36:06.616Z,35.81
2019-05-07T15:38:39.936Z,35.28
2019-05-07T15:41:11.627Z,35.87
2019-05-07T15:43:45.847Z,35.59
2019-05-07T15:46:16.326Z,36.59
2019-05-07T15:48:47.796Z,37.07
2019-05-07T15:51:19.373Z,36.32
2019-05-07T15:53:53.646Z,35.85
2019-05-07T15:56:25.613Z,35.36
2019-05-07T15:58:57.467Z,35.42
2019-05-07T16:01:29.359Z,35.40
2019-05-07T16:04:02.775Z,35.84
2019-05-07T16:06:36.225Z,34.81
2019-05-07T16:09:08.904Z,34.77
2019-05-07T16:11:43.046Z,35.10
2019-05-07T16:14:26.860Z,34.51
2019-05-07T16:17:13.666Z,34.49
2019-05-07T16:19:46.236Z,34.94
2019-05-07T16:22:24.779Z,35.25
2019-05-07T16:24:56.057Z,34.86
2019-05-07T16:27:27.719Z,34.68
2019-05-07T16:29:59.621Z,35.10
2019-05-07T16:32:32.856Z,36.21
2019-05-07T16:35:05.681Z,36.24
2019-05-07T16:37:37.772Z,35.91
2019-05-07T16:40:09.527Z,35.29
2019-05-07T16:42:42.901Z,35.47
2019-05-07T16:45:15.282Z,35.21
2019-05-07T16:47:47.142Z,35.52
2019-05-07T16:50:18.910Z,35.61
2019-05-07T16:52:52.488Z,35.37
2019-05-07T16:55:28.562Z,35.51
2019-05-07T16:58:23.484Z,35.53
2019-05-07T17:01:00.172Z,35.56
2019-05-07T17:03:39.857Z,35.77
2019-05-07T17:06:12.522Z,35.96
2019-05-07T17:08:54.275Z,36.03
2019-05-07T17:11:25.913Z,35.78
2019-05-07T17:13:57.556Z,36.36
2019-05-07T17:16:31.580Z,36.51
2019-05-07T17:19:03.031Z,37.58
2019-05-07T17:21:35.278Z,37.62
2019-05-07T17:24:06.849Z,37.87
2019-05-07T17:26:38.966Z,37.60
2019-05-07T17:29:12.037Z,37.94
2019-05-07T17:31:44.164Z,38.36
2019-05-07T17:34:16.180Z,38.44
2019-05-07T17:36:47.977Z,38.15
2019-05-07T17:39:20.066Z,38.32
2019-05-07T17:41:52.546Z,38.81
2019-05-07T17:44:24.293Z,38.84
2019-05-07T17:47:01.923Z,38.58
2019-05-07T17:49:36.306Z,39.05
2019-05-07T17:52:09.970Z,39.17
2019-05-07T17:54:42.370Z,39.38
2019-05-07T17:57:15.920Z,39.22
2019-05-07T17:59:47.879Z,40.63
2019-05-07T18:02:29.589Z,44.21
2019-05-07T18:05:02.821Z,45.21
2019-05-07T18:07:36.824Z,46.27
2019-05-07T18:10:09.927Z,46.33
2019-05-07T18:12:43.532Z,46.71
2019-05-07T18:15:15.887Z,46.83
2019-05-07T18:17:53.053Z,46.71
2019-05-07T18:20:24.435Z,46.84
2019-05-07T18:22:56.378Z,47.78
2019-05-07T18:25:28.391Z,48.02
2019-05-07T18:28:01.866Z,48.72
2019-05-07T18:30:33.749Z,49.92
2019-05-07T18:33:29.686Z,50.87
2019-05-07T18:36:02.809Z,50.90
2019-05-07T18:38:34.835Z,51.01
2019-05-07T18:41:06.858Z,50.17
2019-05-07T18:43:39.034Z,49.88
2019-05-07T18:46:12.754Z,49.13
2019-05-07T18:48:45.004Z,48.37
2019-05-07T18:51:16.751Z,49.33
2019-05-07T18:53:49.136Z,49.33
2019-05-07T18:56:22.146Z,49.20
2019-05-07T18:58:54.208Z,49.57
2019-05-07T19:01:27.386Z,49.64
2019-05-07T19:03:59.523Z,50.09
2019-05-07T19:06:32.597Z,50.99
2019-05-07T19:09:05.792Z,50.82
2019-05-07T19:11:39.679Z,50.96
2019-05-07T19:14:13.247Z,51.32
2019-05-07T19:16:45.785Z,50.82
2019-05-07T19:19:17.568Z,51.22
2019-05-07T19:21:49.614Z,51.32
2019-05-07T19:24:25.835Z,51.62
2019-05-07T19:26:55.730Z,51.24
2019-05-07T19:29:27.600Z,52.30
2019-05-07T19:31:59.832Z,52.12
2019-05-07T19:34:32.464Z,51.61
2019-05-07T19:37:04.041Z,51.45
2019-05-07T19:39:36.099Z,51.72
2019-05-07T19:42:08.177Z,51.46
2019-05-07T19:44:42.264Z,51.45
2019-05-07T19:47:14.240Z,52.01
2019-05-07T19:49:46.312Z,52.60
2019-05-07T19:52:18.568Z,53.28
2019-05-07T19:55:00.483Z,53.46
2019-05-07T19:57:28.146Z,52.99
2019-05-07T20:00:00.100Z,54.24
2019-05-07T20:02:37.288Z,53.92
2019-05-07T20:05:08.619Z,53.47
2019-05-07T20:07:42.335Z,53.17
2019-05-07T20:10:15.770Z,53.20
2019-05-07T20:12:47.454Z,53.88
2019-05-07T20:15:19.255Z,54.26
2019-05-07T20:17:52.632Z,53.97
2019-05-07T20:20:24.482Z,54.08
2019-05-07T20:22:59.595Z,54.04
2019-05-07T20:25:33.387Z,53.85
2019-05-07T20:28:04.492Z,54.28
2019-05-07T20:30:36.118Z,54.19
2019-05-07T20:33:07.877Z,54.42
2019-05-07T20:35:41.301Z,54.52
2019-05-07T20:38:13.139Z,54.66
2019-05-07T20:40:45.111Z,54.70
2019-05-07T20:43:17.272Z,54.84
2019-05-07T20:45:49.417Z,54.88
2019-05-07T20:48:22.663Z,55.14
2019-05-07T20:50:54.478Z,55.39
2019-05-07T20:53:43.949Z,55.22
2019-05-07T20:56:16.323Z,55.37
2019-05-07T20:58:48.521Z,55.80
2019-05-07T21:01:22.016Z,55.77
2019-05-07T21:03:54.473Z,56.26
2019-05-07T21:06:26.529Z,56.31
2019-05-07T21:08:58.512Z,56.37
2019-05-07T21:11:32.369Z,56.06
2019-05-07T21:14:03.561Z,56.24
2019-05-07T21:16:35.324Z,55.63
2019-05-07T21:19:06.682Z,56.01
2019-05-07T21:21:38.421Z,56.46
2019-05-07T21:24:09.995Z,56.54
2019-05-07T21:26:42.336Z,56.88
2019-05-07T21:29:15.039Z,56.80
2019-05-07T21:31:47.368Z,56.96
2019-05-07T21:34:19.886Z,57.16
2019-05-07T21:36:52.422Z,57.12
2019-05-07T21:39:24.409Z,56.94
2019-05-07T21:41:56.241Z,57.28
2019-05-07T21:44:28.232Z,57.70
2019-05-07T21:47:01.719Z,57.51
2019-05-07T21:49:34.712Z,58.32
2019-05-07T21:52:06.141Z,58.52
2019-05-07T21:54:59.285Z,58.02
2019-05-07T21:57:55.740Z,58.52
2019-05-07T22:00:45.148Z,58.98
2019-05-07T22:03:18.459Z,58.69
2019-05-07T22:05:51.719Z,58.37
2019-05-07T22:08:23.859Z,59.04
2019-05-07T22:10:55.541Z,58.55
2019-05-07T22:13:28.325Z,58.37
2019-05-07T22:16:02.528Z,58.62
2019-05-07T22:18:34.679Z,58.98
2019-05-07T22:21:06.352Z,59.12
2019-05-07T22:23:38.231Z,58.82
2019-05-07T22:26:20.340Z,59.11
2019-05-07T22:28:43.277Z,58.98
2019-05-07T22:31:28.238Z,58.49
2019-05-07T22:34:18.758Z,59.37
2019-05-07T22:36:52.091Z,59.72
2019-05-07T22:39:37.695Z,59.50
2019-05-07T22:42:11.863Z,59.16
2019-05-07T22:44:43.971Z,59.09
2019-05-07T22:47:22.723Z,59.47
2019-05-07T22:49:55.673Z,59.59
2019-05-07T22:52:27.842Z,59.53
2019-05-07T22:54:59.705Z,59.64
2019-05-07T22:57:41.879Z,59.75
2019-05-07T23:00:22.633Z,59.52
2019-05-07T23:02:54.042Z,59.72
2019-05-07T23:05:25.986Z,60.01
2019-05-07T23:07:57.955Z,60.17
2019-05-07T23:10:29.825Z,60.43
2019-05-07T23:13:02.278Z,60.12
2019-05-07T23:15:34.064Z,60.03
2019-05-07T23:18:05.789Z,60.75
2019-05-07T23:20:37.845Z,60.27
2019-05-07T23:23:09.683Z,60.03
2019-05-07T23:25:43.115Z,60.77
2019-05-07T23:28:15.186Z,60.85
2019-05-07T23:30:47.039Z,61.22
2019-05-07T23:33:19.110Z,61.28
2019-05-07T23:35:52.793Z,61.29
2019-05-07T23:38:24.687Z,60.99
2019-05-07T23:41:04.310Z,61.57
2019-05-07T23:43:36.882Z,61.74
2019-05-07T23:46:08.857Z,61.87
2019-05-07T23:48:42.698Z,61.75
2019-05-07T23:51:14.434Z,61.56
2019-05-07T23:53:46.565Z,61.26
2019-05-07T23:56:18.016Z,61.67
2019-05-07T23:58:49.931Z,61.54
